ADDS METAR Data INFO
IDs: Format: Raw Decoded Include TAF

Data at: 0804 UTC 24 May 2018

KF46 240755Z AUTO 11004KT 10SM CLR 22/21 A3006 RMK AO2 T02200210
KF46 240735Z AUTO 00000KT 10SM CLR 22/22 A3006 RMK AO2 T02220215
KF46 240715Z AUTO 10003KT 10SM CLR 22/22 A3007 RMK AO2 T02240215
KF46 240655Z AUTO 18003KT 10SM SCT060 23/21 A3006 RMK AO2 T02300207
KF46 240635Z AUTO 17003KT 10SM SCT060 23/21 A3007 RMK AO2 T02320207
KF46 240615Z AUTO 20003KT 10SM CLR 23/21 A3008 RMK AO2 T02340207
KF46 240555Z AUTO 20004KT 10SM CLR 24/21 A3008 RMK AO2 T02380206 10310 20236 403220206
KF46 240535Z AUTO 19006KT 10SM CLR 24/21 A3008 RMK AO2 T02370207
KF46 240515Z AUTO 17004KT 10SM CLR 24/21 A3007 RMK AO2 T02360209
KF46 240455Z AUTO 13004KT 10SM CLR 24/21 A3007 RMK AO2 T02390209
KF46 240435Z AUTO 12003KT 10SM CLR 24/21 A3007 RMK AO2 T02430208
KF46 240415Z AUTO 15003KT 10SM CLR 25/21 A3007 RMK AO2 T02480210
KF46 240355Z AUTO 13005KT 10SM SCT050 25/21 A3006 RMK AO2 T02530211
KF46 240335Z AUTO 12005KT 10SM SCT050 26/21 A3005 RMK AO2 T02570211
KF46 240315Z AUTO 11005KT 10SM SCT050 26/21 A3004 RMK AO2 T02610210
KF46 240255Z AUTO 11006KT 10SM CLR 26/21 A3003 RMK AO2 T02620209
KF46 240235Z AUTO 11005KT 10SM CLR 25/21 A3001 RMK AO2 T02520209
KF46 240215Z AUTO 12003KT 10SM CLR 27/20 A3000 RMK AO2 T02690201
KF46 240155Z AUTO 13004KT 10SM CLR 27/20 A3000 RMK AO2 T02710201
KF46 240135Z AUTO 13004KT 10SM CLR 28/20 A3000 RMK AO2 T02760201
KF46 240115Z AUTO 13005KT 10SM CLR 29/19 A3000 RMK AO2 T02860194
KF46 240055Z AUTO 17004KT 10SM CLR 30/19 A2999 RMK AO2 LTG DSNT N T02960190
KF46 240035Z AUTO 16003KT 10SM CLR 30/19 A2999 RMK AO2 T03010190
KF46 240015Z AUTO 17004KT 10SM CLR 31/19 A2998 RMK AO2 T03070190
KF46 232355Z AUTO 17005KT 10SM CLR 31/19 A2998 RMK AO2 LTG DSNT E T03110191 10322 20295
KF46 232335Z AUTO 16004KT 10SM CLR 31/19 A2999 RMK AO2 T03130191
KF46 232315Z AUTO 16006KT 10SM CLR 32/19 A2999 RMK AO2 T03150186
KF46 232255Z AUTO 16004KT 10SM CLR 32/18 A2999 RMK AO2 T03190181
KF46 232235Z AUTO 19007KT 10SM CLR 32/18 A3000 RMK AO2 T03210183
KF46 232215Z AUTO 20004KT 10SM SCT060 32/18 A3000 RMK AO2 T03190178
KF46 232155Z AUTO 19004KT 10SM SCT060 31/18 A3000 RMK AO2 T03130175
KF46 232135Z AUTO 17004KT 10SM CLR 32/18 A3000 RMK AO2 T03200178
KF46 232115Z AUTO 23006KT 10SM CLR 32/18 A3001 RMK AO2 T03200177
KF46 232055Z AUTO 15005KT 10SM SCT060 32/18 A3002 RMK AO2 T03190182
KF46 232035Z AUTO 22006KT 10SM SCT050 32/19 A3002 RMK AO2 T03150187
KF46 232015Z AUTO 18003KT 10SM SCT050 32/19 A3002 RMK AO2 T03150187
KF46 231955Z AUTO 18007KT 10SM SCT048 SCT060 SCT090 30/19 A3003 RMK AO2 T03040191
KF46 231935Z AUTO 13004KT 10SM SCT048 SCT060 30/20 A3003 RMK AO2 T03040197
KF46 231915Z AUTO 00000KT 10SM SCT044 SCT060 30/20 A3004 RMK AO2 T03000200
KF46 231855Z AUTO 20006KT 10SM SCT046 BKN050 31/21 A3005 RMK AO2 LTG DSNT S T03080207
KF46 231835Z AUTO 18005KT 10SM SCT041 BKN048 BKN060 31/20 A3005 RMK AO2 T03080199
KF46 231815Z AUTO 16004KT 10SM BKN039 BKN048 30/20 A3006 RMK AO2 T03010200
KF46 231755Z AUTO 21004KT 10SM BKN037 BKN044 BKN055 30/21 A3007 RMK AO2 T02950207 10297 20206
KF46 231735Z AUTO 16004KT 10SM SCT037 SCT044 BKN055 29/21 A3008 RMK AO2 T02860206
KF46 231715Z AUTO 18005KT 10SM BKN033 29/21 A3008 RMK AO2 T02890209
KF46 231655Z AUTO 10SM BKN033 BKN039 29/21 A3009 RMK AO2 T02860209
KF46 231635Z AUTO 10SM SCT033 SCT039 29/21 A3009 RMK AO2 LTG DSNT S T02890214
KF46 231615Z AUTO 17003KT 10SM SCT024 28/21 A3009 RMK AO2 T02810211
KF46 231555Z AUTO 23005KT 10SM SCT024 27/22 A3009 RMK AO2 T02740217
KF46 231535Z AUTO 23005KT 10SM CLR 27/21 A3009 RMK AO2 T02720213
KF46 231515Z AUTO 00000KT 10SM SCT018 27/22 A3009 RMK AO2 T02650218
KF46 231455Z AUTO 24004KT 10SM CLR 26/22 A3009 RMK AO2 T02610220
KF46 231435Z AUTO 23004KT 10SM CLR 26/22 A3009 RMK AO2 T02580219
KF46 231415Z AUTO 21005KT 10SM CLR 26/22 A3008 RMK AO2 T02570220
KF46 231355Z AUTO 20006KT 10SM CLR 25/22 A3008 RMK AO2 T02480217
KF46 231335Z AUTO 21006KT 10SM CLR 24/22 A3007 RMK AO2 T02410216
KF46 231315Z AUTO 19006KT 10SM CLR 23/22 A3006 RMK AO2 T02320215
KF46 231255Z AUTO 19006KT 10SM CLR 23/21 A3006 RMK AO2 LTG DSNT SE T02250213
KF46 231235Z AUTO 19004KT 10SM CLR 22/21 A3005 RMK AO2 T02190212
KF46 231215Z AUTO 00000KT 10SM CLR 21/21 A3005 RMK AO2 T02110210
KF46 231155Z AUTO 00000KT 10SM CLR 21/21 A3004 RMK AO2 T02060205 10228 20206
KF46 231135Z AUTO 15003KT 10SM CLR 21/21 A3003 RMK AO2 T02080207
KF46 231115Z AUTO 17003KT 10SM CLR 21/21 A3002 RMK AO2 T02070206
KF46 231055Z AUTO 17003KT 10SM CLR 21/21 A3001 RMK AO2 T02090205
KF46 231035Z AUTO 17003KT 10SM CLR 21/21 A3001 RMK AO2 T02100205
KF46 231015Z AUTO 13005KT 10SM CLR 21/20 A3000 RMK AO2 T02080202
KF46 230955Z AUTO 00000KT 10SM CLR 21/20 A3000 RMK AO2 T02080202
KF46 230935Z AUTO 13004KT 10SM CLR 21/20 A3000 RMK AO2 T02100202
KF46 230915Z AUTO 12004KT 10SM CLR 21/20 A2999 RMK AO2 T02100201
KF46 230855Z AUTO 13004KT 10SM CLR 21/20 A2999 RMK AO2 T02100200
KF46 230835Z AUTO 00000KT 10SM CLR 21/20 A2999 RMK AO2 T02110199
KF46 230815Z AUTO 12004KT 10SM CLR 22/20 A2999 RMK AO2 T02150195
KF46 230755Z AUTO 13003KT 10SM CLR 21/20 A3000 RMK AO2 T02140196
KF46 230735Z AUTO 13004KT 10SM CLR 22/19 A3000 RMK AO2 T02190194
KF46 230715Z AUTO 12003KT 10SM CLR 22/19 A3001 RMK AO2 T02200194
KF46 230655Z AUTO 11007KT 10SM CLR 22/20 A3001 RMK AO2 T02220195
KF46 230635Z AUTO 13005KT 10SM CLR 23/19 A3001 RMK AO2 T02250190
KF46 230615Z AUTO 14003KT 10SM CLR 23/19 A3000 RMK AO2 T02260194
KF46 230555Z AUTO 16004KT 10SM CLR 23/20 A3000 RMK AO2 T02270195 10293 20227 403110200
KF46 230535Z AUTO 15003KT 10SM CLR 23/20 A3000 RMK AO2 T02280196
KF46 230515Z AUTO 14003KT 10SM CLR 23/20 A3000 RMK AO2 T02300197
KF46 230455Z AUTO 13005KT 10SM CLR 23/20 A3000 RMK AO2 T02330196
KF46 230435Z AUTO 14003KT 10SM CLR 23/20 A3000 RMK AO2 T02300196
KF46 230415Z AUTO 12003KT 10SM CLR 23/20 A3000 RMK AO2 T02330195
KF46 230355Z AUTO 12005KT 10SM CLR 24/20 A3000 RMK AO2 T02360195
KF46 230335Z AUTO 13004KT 10SM CLR 24/20 A2999 RMK AO2 T02380195
KF46 230315Z AUTO 14004KT 10SM CLR 25/19 A2998 RMK AO2 T02450193
KF46 230255Z AUTO 16005KT 10SM CLR 25/19 A2998 RMK AO2 LTG DSNT N T02460193
KF46 230235Z AUTO 15004KT 10SM CLR 25/20 A2998 RMK AO2 T02500195
KF46 230215Z AUTO 15004KT 10SM CLR 25/20 A2998 RMK AO2 T02510200
KF46 230155Z AUTO 14004KT 10SM CLR 26/20 A2997 RMK AO2 T02560198
KF46 230135Z AUTO 16006KT 10SM CLR 26/20 A2996 RMK AO2 T02600200
KF46 230115Z AUTO 16005KT 10SM CLR 27/20 A2995 RMK AO2 T02680198
KF46 230055Z AUTO 15006KT 10SM CLR 28/21 A2995 RMK AO2 T02750205
KF46 230035Z AUTO 15003KT 10SM CLR 28/21 A2995 RMK AO2 T02800206
KF46 230015Z AUTO 13004KT 10SM CLR 29/21 A2994 RMK AO2 T02870212
KF46 222355Z AUTO 14005KT 10SM CLR 29/20 A2994 RMK AO2 T02930201 10311 20289
KF46 222335Z AUTO 15006KT 10SM CLR 29/20 A2994 RMK AO2 LTG DSNT E T02940200
KF46 222315Z AUTO 14006KT 10SM CLR 30/20 A2994 RMK AO2 T02980204
KF46 222255Z AUTO 18008KT 10SM CLR 31/20 A2994 RMK AO2 T03050204
KF46 222235Z AUTO 17006KT 10SM SCT045 30/20 A2994 RMK AO2 T03010201
KF46 222215Z AUTO 16008KT 10SM SCT045 31/21 A2994 RMK AO2 T03100208
KF46 222155Z AUTO 19003KT 10SM CLR 30/20 A2994 RMK AO2 T03020199
KF46 222135Z AUTO 23006KT 10SM CLR 30/20 A2994 RMK AO2 T03040204
KF46 222115Z AUTO 21007KT 10SM SCT045 30/20 A2995 RMK AO2 T02970197
KF46 222055Z AUTO 21006KT 10SM CLR 30/20 A2996 RMK AO2 T03030196
KF46 222035Z AUTO 20005KT 10SM CLR 30/20 A2997 RMK AO2 T03030203
KF46 222015Z AUTO 16005KT 10SM SCT042 SCT050 SCT070 30/20 A2997 RMK AO2 T03010204